Time;durP1;ratioP1;P1;durP2;ratioP2;P2;SDS_P1;SDS_P2;PMS_P1;PMS_P2;Temp;Humidity;BMP_temperature;BMP_pressure;BME280_temperature;BME280_humidity;BME280_pressure;Samples;Min_cycle;Max_cycle;Signal;HPM_P1;HPM_P2
2022/03/30 00:00:11;;;;;;;23.83;13.88;;;;;;;;;;5080682;28;20032;-66
2022/03/30 00:02:39;;;;;;;34.08;14.77;;;;;;;;;;5092011;28;20620;-66
2022/03/30 00:05:05;;;;;;;26.10;14.73;;;;;;;;;;5073139;28;20040;-65
2022/03/30 00:07:32;;;;;;;28.45;14.02;;;;;;;;;;5069065;28;20036;-65
2022/03/30 00:10:04;;;;;;;20.25;14.00;;;;;;;;;;5072829;28;20043;-65
2022/03/30 00:12:31;;;;;;;26.48;14.13;;;;;;;;;;5073616;28;20039;-65
2022/03/30 00:14:57;;;;;;;22.98;14.82;;;;;;;;;;5074364;28;20044;-65
2022/03/30 00:17:23;;;;;;;27.33;16.15;;;;;;;;;;5076297;28;20071;-65
2022/03/30 00:19:50;;;;;;;23.67;14.73;;;;;;;;;;5074210;28;20087;-65
2022/03/30 00:22:16;;;;;;;27.65;15.38;;;;;;;;;;5076347;28;20190;-66
2022/03/30 00:24:43;;;;;;;25.50;14.07;;;;;;;;;;5079523;28;20119;-65
2022/03/30 00:27:10;;;;;;;23.00;13.15;;;;;;;;;;5071235;28;20119;-66
2022/03/30 00:29:36;;;;;;;25.85;13.80;;;;;;;;;;5072680;28;20086;-65
2022/03/30 00:32:03;;;;;;;22.58;14.10;;;;;;;;;;5071874;28;20036;-65
2022/03/30 00:34:29;;;;;;;30.92;14.05;;;;;;;;;;5077206;28;20040;-65
2022/03/30 00:36:55;;;;;;;23.20;13.07;;;;;;;;;;5074423;28;20044;-65
2022/03/30 00:39:21;;;;;;;27.85;14.02;;;;;;;;;;5076772;28;20040;-65
2022/03/30 00:41:47;;;;;;;26.90;15.00;;;;;;;;;;5076591;28;20044;-65
2022/03/30 00:44:14;;;;;;;24.50;13.20;;;;;;;;;;5074469;28;20037;-65
2022/03/30 00:46:43;;;;;;;29.80;15.90;;;;;;;;;;5072471;28;20045;-66
2022/03/30 00:49:09;;;;;;;26.13;15.70;;;;;;;;;;5086850;28;20214;-65
2022/03/30 00:51:35;;;;;;;27.92;14.65;;;;;;;;;;5075031;28;20028;-65
2022/03/30 00:54:01;;;;;;;32.53;16.85;;;;;;;;;;5073797;28;20489;-65
2022/03/30 00:56:30;;;;;;;29.35;16.25;;;;;;;;;;5078255;28;20040;-65
2022/03/30 00:58:56;;;;;;;24.30;15.00;;;;;;;;;;5074694;28;20513;-65
2022/03/30 01:01:23;;;;;;;23.65;16.05;;;;;;;;;;5076399;28;20029;-65
2022/03/30 01:03:49;;;;;;;22.83;14.55;;;;;;;;;;5076156;28;20567;-65
2022/03/30 01:06:16;;;;;;;27.92;15.73;;;;;;;;;;5077351;28;20069;-66
2022/03/30 01:08:42;;;;;;;24.27;15.30;;;;;;;;;;5069497;28;20044;-65
2022/03/30 01:11:12;;;;;;;25.35;15.23;;;;;;;;;;5073771;28;20055;-65
2022/03/30 01:13:39;;;;;;;29.27;17.20;;;;;;;;;;5090055;28;20040;-65
2022/03/30 01:16:06;;;;;;;32.20;14.80;;;;;;;;;;5074821;28;20049;-65
2022/03/30 01:18:39;;;;;;;28.05;16.83;;;;;;;;;;5055361;28;20506;-65
2022/03/30 01:21:06;;;;;;;30.35;15.82;;;;;;;;;;5075233;28;20413;-65
2022/03/30 01:23:32;;;;;;;29.70;15.95;;;;;;;;;;5075372;28;20516;-65
2022/03/30 01:25:58;;;;;;;31.58;15.45;;;;;;;;;;5075849;28;20045;-66
2022/03/30 01:28:28;;;;;;;27.40;16.25;;;;;;;;;;5070469;28;20105;-65
2022/03/30 01:33:48;;;;;;;28.08;13.68;;;;;;;;;;5072771;28;20047;-65
2022/03/30 01:36:17;;;;;;;24.88;13.55;;;;;;;;;;5073913;28;20043;-65
2022/03/30 01:38:44;;;;;;;24.83;14.20;;;;;;;;;;5073988;28;20032;-65
2022/03/30 01:41:11;;;;;;;31.33;12.70;;;;;;;;;;5091594;28;20033;-65
2022/03/30 01:43:37;;;;;;;25.40;11.25;;;;;;;;;;5077540;28;20067;-65
2022/03/30 01:46:03;;;;;;;24.08;12.02;;;;;;;;;;5074154;28;20440;-65
2022/03/30 01:48:29;;;;;;;18.17;10.93;;;;;;;;;;5068840;28;20412;-65
2022/03/30 01:50:55;;;;;;;13.52;7.78;;;;;;;;;;5074909;28;20040;-65
2022/03/30 01:53:21;;;;;;;13.30;6.65;;;;;;;;;;5071059;28;20040;-65
2022/03/30 01:55:48;;;;;;;11.73;7.45;;;;;;;;;;5073600;28;20424;-65
2022/03/30 01:58:15;;;;;;;10.35;4.63;;;;;;;;;;5073326;28;20033;-65
2022/03/30 02:00:41;;;;;;;6.82;3.78;;;;;;;;;;5075542;28;20659;-65
2022/03/30 02:03:08;;;;;;;10.70;3.03;;;;;;;;;;5072765;28;20441;-65
2022/03/30 02:05:34;;;;;;;4.88;2.30;;;;;;;;;;5071219;28;20451;-65
2022/03/30 02:08:00;;;;;;;4.45;2.53;;;;;;;;;;5071822;28;20032;-65
2022/03/30 02:10:28;;;;;;;6.43;2.60;;;;;;;;;;5069396;28;20037;-65
2022/03/30 02:12:54;;;;;;;4.57;2.45;;;;;;;;;;5071531;28;20044;-65
2022/03/30 02:15:22;;;;;;;4.18;2.35;;;;;;;;;;5071995;28;20103;-66
2022/03/30 02:17:48;;;;;;;6.05;2.72;;;;;;;;;;5074129;28;20264;-65
2022/03/30 02:20:15;;;;;;;4.95;2.17;;;;;;;;;;5076733;28;20123;-65
2022/03/30 02:22:41;;;;;;;6.15;2.35;;;;;;;;;;5074571;28;20512;-65
2022/03/30 02:25:08;;;;;;;4.70;2.47;;;;;;;;;;5073837;28;20116;-65
2022/03/30 02:27:35;;;;;;;7.28;2.65;;;;;;;;;;5070032;28;20076;-65
2022/03/30 02:30:01;;;;;;;6.75;2.70;;;;;;;;;;5072491;28;20063;-65
2022/03/30 02:32:27;;;;;;;4.65;2.15;;;;;;;;;;5089927;28;20079;-65
2022/03/30 02:34:53;;;;;;;6.07;2.20;;;;;;;;;;5074603;28;20043;-65
2022/03/30 02:37:19;;;;;;;3.85;2.13;;;;;;;;;;5076596;28;20045;-65
2022/03/30 02:39:46;;;;;;;5.20;2.10;;;;;;;;;;5074977;28;20040;-65
2022/03/30 02:42:12;;;;;;;3.05;1.95;;;;;;;;;;5071386;28;20036;-65
2022/03/30 02:44:39;;;;;;;4.18;2.38;;;;;;;;;;5068704;28;20048;-65
2022/03/30 02:47:05;;;;;;;3.10;1.95;;;;;;;;;;5070160;28;20625;-65
2022/03/30 02:49:32;;;;;;;5.20;1.75;;;;;;;;;;5068428;28;20098;-65
2022/03/30 02:51:58;;;;;;;7.22;2.15;;;;;;;;;;5073691;28;20047;-65
2022/03/30 02:54:25;;;;;;;5.75;1.77;;;;;;;;;;5075386;28;20390;-65
2022/03/30 02:56:51;;;;;;;4.40;1.65;;;;;;;;;;5073853;28;20120;-65
2022/03/30 02:59:17;;;;;;;5.78;1.20;;;;;;;;;;5071820;28;20036;-65
2022/03/30 03:01:44;;;;;;;3.65;1.90;;;;;;;;;;5068171;28;20390;-65
2022/03/30 03:04:10;;;;;;;9.25;2.10;;;;;;;;;;5068019;28;20126;-65
2022/03/30 03:06:37;;;;;;;2.20;0.90;;;;;;;;;;5071762;28;20050;-65
2022/03/30 03:09:03;;;;;;;5.30;1.52;;;;;;;;;;5068357;28;20036;-65
2022/03/30 03:11:30;;;;;;;2.30;1.10;;;;;;;;;;5052785;28;20048;-65
2022/03/30 03:13:56;;;;;;;3.70;1.08;;;;;;;;;;5070730;28;20044;-65
2022/03/30 03:16:22;;;;;;;2.95;0.88;;;;;;;;;;5073395;28;20036;-65
2022/03/30 03:18:48;;;;;;;3.55;1.48;;;;;;;;;;5074915;28;20152;-65
2022/03/30 03:21:14;;;;;;;2.45;1.13;;;;;;;;;;5068074;28;20041;-65
2022/03/30 03:23:41;;;;;;;2.38;0.95;;;;;;;;;;5069115;28;20040;-65
2022/03/30 03:26:07;;;;;;;1.15;0.68;;;;;;;;;;5070002;28;20063;-65
2022/03/30 03:28:34;;;;;;;1.85;0.90;;;;;;;;;;5088073;28;20045;-65
2022/03/30 03:31:00;;;;;;;2.78;1.02;;;;;;;;;;5069890;28;20036;-65
2022/03/30 03:33:26;;;;;;;2.75;0.77;;;;;;;;;;5074034;28;20093;-65
2022/03/30 03:35:52;;;;;;;2.63;0.80;;;;;;;;;;5073896;28;20044;-65
2022/03/30 03:38:18;;;;;;;1.98;0.85;;;;;;;;;;5071064;28;20048;-65
2022/03/30 03:40:45;;;;;;;1.05;0.68;;;;;;;;;;5077416;28;20032;-64
2022/03/30 03:43:11;;;;;;;2.47;0.70;;;;;;;;;;5075785;28;20565;-65
2022/03/30 03:45:37;;;;;;;1.20;0.63;;;;;;;;;;5076972;28;20541;-65
2022/03/30 03:48:03;;;;;;;1.15;0.90;;;;;;;;;;5074117;28;20041;-65
2022/03/30 03:50:29;;;;;;;0.50;0.50;;;;;;;;;;5074296;28;20068;-65
2022/03/30 03:52:56;;;;;;;0.93;0.60;;;;;;;;;;5075614;28;20094;-65
2022/03/30 03:55:22;;;;;;;0.95;0.70;;;;;;;;;;5075011;28;20362;-64
2022/03/30 03:57:50;;;;;;;3.67;0.90;;;;;;;;;;5080049;28;20079;-65
2022/03/30 04:00:17;;;;;;;1.25;0.70;;;;;;;;;;5074143;28;20116;-65
2022/03/30 04:02:43;;;;;;;2.45;1.08;;;;;;;;;;5077528;28;20437;-65
2022/03/30 04:05:09;;;;;;;2.10;0.75;;;;;;;;;;5078543;28;20865;-65
2022/03/30 04:07:37;;;;;;;2.95;1.10;;;;;;;;;;5084524;28;20477;-65
2022/03/30 04:10:04;;;;;;;1.60;0.70;;;;;;;;;;5081642;28;20419;-65
2022/03/30 04:12:30;;;;;;;1.67;0.80;;;;;;;;;;5086937;28;20094;-65
2022/03/30 04:14:57;;;;;;;0.80;0.73;;;;;;;;;;5087059;28;20047;-65
2022/03/30 04:17:25;;;;;;;1.83;0.85;;;;;;;;;;5100078;28;20048;-65
2022/03/30 04:19:53;;;;;;;1.20;0.80;;;;;;;;;;5077730;28;20404;-65
2022/03/30 04:22:19;;;;;;;1.55;0.90;;;;;;;;;;5093035;28;20405;-65
2022/03/30 04:24:45;;;;;;;3.97;1.00;;;;;;;;;;5072718;28;20055;-65
2022/03/30 04:27:11;;;;;;;3.00;1.50;;;;;;;;;;5072912;28;20513;-65
2022/03/30 04:29:37;;;;;;;4.60;1.10;;;;;;;;;;5076649;28;20043;-65
2022/03/30 04:32:04;;;;;;;1.92;1.10;;;;;;;;;;5076169;28;20093;-64
2022/03/30 04:34:30;;;;;;;2.08;1.00;;;;;;;;;;5076912;28;20061;-65
2022/03/30 04:36:56;;;;;;;4.85;1.65;;;;;;;;;;5074049;28;20032;-65
2022/03/30 04:39:22;;;;;;;2.97;1.30;;;;;;;;;;5075653;28;20036;-64
2022/03/30 04:41:48;;;;;;;1.90;0.93;;;;;;;;;;5073201;28;20222;-64
2022/03/30 04:44:14;;;;;;;4.30;1.52;;;;;;;;;;5072767;28;20041;-65
2022/03/30 04:46:41;;;;;;;3.75;1.55;;;;;;;;;;5077305;28;20044;-65
2022/03/30 04:49:07;;;;;;;4.57;2.33;;;;;;;;;;5072443;28;20403;-65
2022/03/30 04:51:33;;;;;;;5.68;2.38;;;;;;;;;;5074785;28;20100;-65
2022/03/30 04:53:59;;;;;;;4.40;1.85;;;;;;;;;;5075594;28;20413;-65
2022/03/30 04:56:25;;;;;;;3.08;2.17;;;;;;;;;;5072181;28;20181;-65
2022/03/30 04:58:51;;;;;;;2.33;1.35;;;;;;;;;;5070116;28;20636;-65
2022/03/30 05:01:17;;;;;;;7.55;2.08;;;;;;;;;;5070669;28;20064;-64
2022/03/30 05:03:43;;;;;;;5.63;2.17;;;;;;;;;;5073019;28;20032;-64
2022/03/30 05:06:10;;;;;;;4.75;2.30;;;;;;;;;;5078986;28;20040;-65
2022/03/30 05:08:36;;;;;;;3.17;1.55;;;;;;;;;;5075548;28;20106;-65
2022/03/30 05:11:02;;;;;;;4.30;1.60;;;;;;;;;;5087422;28;20371;-64
2022/03/30 05:13:28;;;;;;;3.28;1.52;;;;;;;;;;5077801;28;20047;-65
2022/03/30 05:15:54;;;;;;;6.15;1.88;;;;;;;;;;5091189;28;20122;-65
2022/03/30 05:18:22;;;;;;;4.50;1.70;;;;;;;;;;5085626;28;20127;-65
2022/03/30 05:20:48;;;;;;;5.20;1.83;;;;;;;;;;5091471;28;20036;-65
2022/03/30 05:23:14;;;;;;;3.15;1.48;;;;;;;;;;5084562;28;20041;-65
2022/03/30 05:25:41;;;;;;;3.88;1.65;;;;;;;;;;5089833;28;20105;-65
2022/03/30 05:28:07;;;;;;;5.55;1.98;;;;;;;;;;5089574;28;20423;-64
2022/03/30 05:30:33;;;;;;;6.30;1.67;;;;;;;;;;5089334;28;20362;-64
2022/03/30 05:33:01;;;;;;;5.07;1.60;;;;;;;;;;5087229;28;20090;-64
2022/03/30 05:35:27;;;;;;;3.17;1.52;;;;;;;;;;5088451;28;20094;-65
2022/03/30 05:37:53;;;;;;;3.30;2.05;;;;;;;;;;5087724;28;20054;-64
2022/03/30 05:40:19;;;;;;;3.72;1.58;;;;;;;;;;5080457;28;20040;-65
2022/03/30 05:42:45;;;;;;;3.25;1.60;;;;;;;;;;5086692;28;20036;-64
2022/03/30 05:45:12;;;;;;;3.38;1.65;;;;;;;;;;5087410;28;20062;-66
2022/03/30 05:47:38;;;;;;;4.97;2.17;;;;;;;;;;5091433;28;20036;-64
2022/03/30 05:50:07;;;;;;;3.65;1.98;;;;;;;;;;5086941;28;20035;-64
2022/03/30 05:52:33;;;;;;;7.22;1.80;;;;;;;;;;5090339;28;20075;-64
2022/03/30 05:54:59;;;;;;;3.50;1.67;;;;;;;;;;5090583;28;20048;-64
2022/03/30 05:57:25;;;;;;;3.50;2.03;;;;;;;;;;5087892;28;20405;-65
2022/03/30 05:59:52;;;;;;;4.07;2.08;;;;;;;;;;5091668;28;20047;-64
2022/03/30 06:02:18;;;;;;;3.25;1.90;;;;;;;;;;5084928;28;20040;-64
2022/03/30 06:04:45;;;;;;;4.22;2.20;;;;;;;;;;5087703;28;20150;-64
2022/03/30 06:07:11;;;;;;;3.92;2.55;;;;;;;;;;5076026;28;20051;-65
2022/03/30 06:09:38;;;;;;;6.95;2.22;;;;;;;;;;5090248;28;20039;-64
2022/03/30 06:12:04;;;;;;;5.97;1.98;;;;;;;;;;5084755;28;20046;-64
2022/03/30 06:14:31;;;;;;;4.13;1.92;;;;;;;;;;5083282;28;20048;-64
2022/03/30 06:16:57;;;;;;;5.50;2.10;;;;;;;;;;5079417;28;20052;-65
2022/03/30 06:19:24;;;;;;;5.57;2.88;;;;;;;;;;5076913;28;20051;-65
2022/03/30 06:21:51;;;;;;;8.90;2.83;;;;;;;;;;5088158;28;20040;-65
2022/03/30 06:24:17;;;;;;;4.80;3.35;;;;;;;;;;5089580;28;20036;-65
2022/03/30 06:26:43;;;;;;;8.02;2.58;;;;;;;;;;5089877;28;20040;-64
2022/03/30 06:29:10;;;;;;;7.85;2.83;;;;;;;;;;5081522;28;20044;-64
2022/03/30 06:31:36;;;;;;;5.47;2.45;;;;;;;;;;5085610;28;20251;-65
2022/03/30 06:34:03;;;;;;;6.30;2.60;;;;;;;;;;5085917;28;20036;-65
2022/03/30 06:36:30;;;;;;;5.32;2.05;;;;;;;;;;5078530;28;20054;-64
2022/03/30 06:38:56;;;;;;;3.50;1.85;;;;;;;;;;5071272;28;20051;-64
2022/03/30 06:41:24;;;;;;;5.57;2.15;;;;;;;;;;5079859;28;20579;-64
2022/03/30 06:43:50;;;;;;;6.18;2.50;;;;;;;;;;5083011;28;20038;-65
2022/03/30 06:46:17;;;;;;;4.75;2.00;;;;;;;;;;5085897;28;20470;-65
2022/03/30 06:48:45;;;;;;;6.53;2.50;;;;;;;;;;5087517;28;20040;-65
2022/03/30 06:51:12;;;;;;;6.88;3.40;;;;;;;;;;5087566;28;20242;-64
2022/03/30 06:53:38;;;;;;;7.05;3.20;;;;;;;;;;5084979;28;20044;-65
2022/03/30 06:56:04;;;;;;;10.63;2.90;;;;;;;;;;5076943;28;20044;-65
2022/03/30 06:58:30;;;;;;;4.82;2.28;;;;;;;;;;5077539;28;20028;-65
2022/03/30 07:00:59;;;;;;;8.63;3.20;;;;;;;;;;5082346;28;20489;-65
2022/03/30 07:03:26;;;;;;;7.18;3.50;;;;;;;;;;5075890;28;20094;-65
2022/03/30 07:05:53;;;;;;;6.32;4.10;;;;;;;;;;5080376;28;20450;-65
2022/03/30 07:11:03;;;;;;;5.93;2.25;;;;;;;;;;5078483;28;20119;-65
2022/03/30 07:13:29;;;;;;;2.40;1.60;;;;;;;;;;5078113;28;20386;-65
2022/03/30 07:15:56;;;;;;;5.90;1.70;;;;;;;;;;5075899;28;20054;-65
2022/03/30 07:18:22;;;;;;;3.22;1.63;;;;;;;;;;5082840;28;20048;-64
2022/03/30 07:20:48;;;;;;;5.75;2.35;;;;;;;;;;5079340;28;20498;-64
2022/03/30 07:23:15;;;;;;;5.85;1.88;;;;;;;;;;5081657;28;20374;-65
2022/03/30 07:25:41;;;;;;;3.65;1.63;;;;;;;;;;5070064;28;20135;-65
2022/03/30 07:28:08;;;;;;;4.75;1.60;;;;;;;;;;5085744;28;20079;-65
2022/03/30 07:30:36;;;;;;;4.97;1.33;;;;;;;;;;5077891;28;20036;-65
2022/03/30 07:33:02;;;;;;;5.43;1.20;;;;;;;;;;5087523;28;20493;-65
2022/03/30 07:35:32;;;;;;;4.90;1.65;;;;;;;;;;5088599;28;20519;-65
2022/03/30 07:37:58;;;;;;;10.07;2.45;;;;;;;;;;5087102;28;20051;-65
2022/03/30 07:40:25;;;;;;;5.60;1.83;;;;;;;;;;5084008;28;20037;-64
2022/03/30 07:42:51;;;;;;;4.10;1.92;;;;;;;;;;5077301;28;20502;-65
2022/03/30 07:45:18;;;;;;;3.40;1.77;;;;;;;;;;5087422;28;20438;-65
2022/03/30 07:47:44;;;;;;;3.42;1.52;;;;;;;;;;5087027;28;20131;-64
2022/03/30 07:50:11;;;;;;;3.08;1.25;;;;;;;;;;5087560;28;20048;-64
2022/03/30 07:52:37;;;;;;;4.55;1.83;;;;;;;;;;5081786;28;20079;-64
2022/03/30 07:55:04;;;;;;;3.83;1.90;;;;;;;;;;5080699;28;20083;-65
2022/03/30 07:57:30;;;;;;;6.13;1.27;;;;;;;;;;5082322;28;20052;-64
2022/03/30 07:59:58;;;;;;;3.95;1.25;;;;;;;;;;5089245;28;20381;-64
2022/03/30 08:02:24;;;;;;;6.28;1.65;;;;;;;;;;5085594;28;20505;-65
2022/03/30 08:04:51;;;;;;;2.95;1.85;;;;;;;;;;5083690;28;20040;-64
2022/03/30 08:07:18;;;;;;;2.97;1.63;;;;;;;;;;5086824;28;20067;-65
2022/03/30 08:09:44;;;;;;;4.15;1.50;;;;;;;;;;5086667;28;20122;-64
2022/03/30 08:12:15;;;;;;;4.13;1.20;;;;;;;;;;5081208;28;20040;-64
2022/03/30 08:14:42;;;;;;;5.35;1.63;;;;;;;;;;5088551;28;20047;-64
2022/03/30 08:17:09;;;;;;;2.55;1.02;;;;;;;;;;5085140;28;20041;-65
2022/03/30 08:19:35;;;;;;;3.33;1.30;;;;;;;;;;5088633;28;20058;-64
2022/03/30 08:24:47;;;;;;;3.35;1.33;;;;;;;;;;5082230;28;20401;-65
2022/03/30 08:27:17;;;;;;;3.90;1.15;;;;;;;;;;5075208;28;20048;-64
2022/03/30 08:29:44;;;;;;;4.35;1.10;;;;;;;;;;5084259;28;20040;-65
2022/03/30 08:32:14;;;;;;;3.78;1.25;;;;;;;;;;5085750;28;20509;-65
2022/03/30 08:34:41;;;;;;;3.50;1.50;;;;;;;;;;5088789;28;20113;-65
2022/03/30 08:37:07;;;;;;;4.55;1.67;;;;;;;;;;5079556;28;20046;-65
2022/03/30 08:39:35;;;;;;;5.00;3.15;;;;;;;;;;5090716;28;20040;-65
2022/03/30 08:42:02;;;;;;;7.82;2.35;;;;;;;;;;5091348;28;20276;-65
2022/03/30 08:44:29;;;;;;;4.45;1.50;;;;;;;;;;5091871;28;20058;-65
2022/03/30 08:46:55;;;;;;;3.15;1.48;;;;;;;;;;5091340;28;20040;-64
2022/03/30 08:49:21;;;;;;;1.83;1.02;;;;;;;;;;5089156;28;20643;-65
2022/03/30 08:51:49;;;;;;;3.58;1.17;;;;;;;;;;5090122;28;20516;-65
2022/03/30 08:54:16;;;;;;;2.70;1.40;;;;;;;;;;5078884;28;20097;-64
2022/03/30 08:56:42;;;;;;;5.30;1.23;;;;;;;;;;5091464;28;20048;-65
2022/03/30 08:59:10;;;;;;;5.43;1.60;;;;;;;;;;5085094;28;20036;-64
2022/03/30 09:01:38;;;;;;;3.33;1.33;;;;;;;;;;5086059;28;20038;-65
2022/03/30 09:04:08;;;;;;;2.75;1.75;;;;;;;;;;5085347;28;20036;-65
2022/03/30 09:06:35;;;;;;;4.25;1.27;;;;;;;;;;5079368;28;20059;-64
2022/03/30 09:09:02;;;;;;;4.68;1.65;;;;;;;;;;5093774;28;20067;-65
2022/03/30 09:11:58;;;;;;;8.02;2.20;;;;;;;;;;5086309;28;20040;-64
2022/03/30 09:14:26;;;;;;;6.15;2.70;;;;;;;;;;5077373;28;20497;-65
2022/03/30 09:16:55;;;;;;;2.67;1.73;;;;;;;;;;5089784;28;20497;-64
2022/03/30 09:19:21;;;;;;;4.63;1.35;;;;;;;;;;5090883;28;20052;-65
2022/03/30 09:21:49;;;;;;;8.52;5.07;;;;;;;;;;5084127;28;20036;-64
2022/03/30 09:24:17;;;;;;;6.32;1.80;;;;;;;;;;5087430;28;20042;-64
2022/03/30 09:26:44;;;;;;;4.40;1.60;;;;;;;;;;5083700;28;20090;-65
2022/03/30 09:29:11;;;;;;;5.65;2.10;;;;;;;;;;5082589;28;20046;-65
2022/03/30 09:31:42;;;;;;;8.35;2.58;;;;;;;;;;5087223;28;20044;-65
2022/03/30 09:34:09;;;;;;;8.15;5.13;;;;;;;;;;5078952;28;20197;-65
2022/03/30 09:36:37;;;;;;;5.57;2.90;;;;;;;;;;5085069;28;20047;-65
2022/03/30 09:39:04;;;;;;;8.50;5.03;;;;;;;;;;5088007;28;20047;-65
2022/03/30 09:41:47;;;;;;;6.32;3.28;;;;;;;;;;5085009;28;20036;-65
2022/03/30 09:44:13;;;;;;;3.97;1.50;;;;;;;;;;5089081;28;20119;-65
2022/03/30 09:47:11;;;;;;;2.40;1.48;;;;;;;;;;5085943;28;20273;-64
2022/03/30 09:49:42;;;;;;;24.50;13.88;;;;;;;;;;5055622;28;20128;-65
2022/03/30 09:52:12;;;;;;;35.47;21.23;;;;;;;;;;5086743;28;20076;-65
2022/03/30 09:54:39;;;;;;;11.18;6.50;;;;;;;;;;5081514;28;20398;-64
2022/03/30 09:57:12;;;;;;;8.10;3.85;;;;;;;;;;5085469;28;20459;-64
2022/03/30 09:59:57;;;;;;;18.38;10.15;;;;;;;;;;5089111;28;20087;-65
2022/03/30 10:02:24;;;;;;;10.82;2.65;;;;;;;;;;5085265;28;20129;-64
2022/03/30 10:04:51;;;;;;;3.15;1.88;;;;;;;;;;5085679;28;20052;-65
2022/03/30 10:07:17;;;;;;;4.53;1.77;;;;;;;;;;5086220;28;20041;-65
2022/03/30 10:09:44;;;;;;;9.52;1.50;;;;;;;;;;5090215;28;20036;-65
2022/03/30 10:12:12;;;;;;;3.55;1.70;;;;;;;;;;5085226;28;20393;-65
2022/03/30 10:14:39;;;;;;;3.33;1.10;;;;;;;;;;5090216;28;20397;-64
2022/03/30 10:17:06;;;;;;;3.75;1.30;;;;;;;;;;5084709;28;20541;-64
2022/03/30 10:19:32;;;;;;;3.28;1.70;;;;;;;;;;5088555;28;20048;-64
2022/03/30 10:22:03;;;;;;;3.97;2.30;;;;;;;;;;5088861;28;20059;-64
2022/03/30 10:24:49;;;;;;;13.40;3.08;;;;;;;;;;5085249;28;20524;-65
2022/03/30 10:27:22;;;;;;;3.40;2.00;;;;;;;;;;5078710;28;20050;-65
2022/03/30 10:30:08;;;;;;;6.47;2.35;;;;;;;;;;5087417;28;20040;-64
2022/03/30 10:32:36;;;;;;;4.75;2.13;;;;;;;;;;5078331;28;20127;-64
2022/03/30 10:35:10;;;;;;;2.55;1.65;;;;;;;;;;5089724;28;20043;-65
2022/03/30 10:37:38;;;;;;;4.53;1.65;;;;;;;;;;5087936;28;20109;-64
2022/03/30 10:40:04;;;;;;;2.72;1.02;;;;;;;;;;5087452;28;20075;-64
2022/03/30 10:42:54;;;;;;;3.20;0.98;;;;;;;;;;5083643;28;20124;-65
2022/03/30 10:45:33;;;;;;;6.55;1.60;;;;;;;;;;5083303;28;20090;-64
2022/03/30 10:48:09;;;;;;;3.55;1.13;;;;;;;;;;5097460;28;20044;-65
2022/03/30 10:50:41;;;;;;;2.90;2.08;;;;;;;;;;5084815;28;20044;-65
2022/03/30 10:53:25;;;;;;;4.72;1.17;;;;;;;;;;5087466;28;20397;-65
2022/03/30 10:55:51;;;;;;;3.92;1.17;;;;;;;;;;5078344;28;20121;-65
2022/03/30 10:58:21;;;;;;;7.00;1.13;;;;;;;;;;5082903;28;20081;-65
2022/03/30 11:00:47;;;;;;;1.92;1.08;;;;;;;;;;5072741;28;20071;-65
2022/03/30 11:03:21;;;;;;;4.03;1.20;;;;;;;;;;5081021;28;20044;-64
2022/03/30 11:06:00;;;;;;;5.90;1.63;;;;;;;;;;5081104;28;20051;-64
2022/03/30 11:08:32;;;;;;;1.35;0.77;;;;;;;;;;5087852;28;20119;-65
2022/03/30 11:11:02;;;;;;;2.20;0.97;;;;;;;;;;5085936;28;20481;-64
2022/03/30 11:13:29;;;;;;;4.70;1.08;;;;;;;;;;5086846;28;20273;-64
2022/03/30 11:15:59;;;;;;;5.47;1.35;;;;;;;;;;5084420;28;20119;-65
2022/03/30 11:18:26;;;;;;;3.38;1.30;;;;;;;;;;5089083;28;20474;-64
2022/03/30 11:21:20;;;;;;;4.57;1.25;;;;;;;;;;5075282;28;20052;-64
2022/03/30 11:23:58;;;;;;;5.30;1.77;;;;;;;;;;5084235;28;20068;-65
2022/03/30 11:26:45;;;;;;;5.50;1.33;;;;;;;;;;5086076;28;20032;-64
2022/03/30 11:29:30;;;;;;;5.50;1.80;;;;;;;;;;5057369;28;20055;-64
2022/03/30 11:31:56;;;;;;;2.67;1.30;;;;;;;;;;5081544;28;20286;-64
2022/03/30 11:34:28;;;;;;;4.63;1.95;;;;;;;;;;5082898;28;20481;-65
2022/03/30 11:36:54;;;;;;;5.00;1.60;;;;;;;;;;5080801;28;20040;-64
2022/03/30 11:39:33;;;;;;;3.78;1.50;;;;;;;;;;5088815;28;20076;-65
2022/03/30 11:42:03;;;;;;;4.60;2.58;;;;;;;;;;5074551;28;20039;-64
2022/03/30 11:47:19;;;;;;;5.85;2.28;;;;;;;;;;5073087;28;20052;-64
2022/03/30 11:49:56;;;;;;;4.70;1.45;;;;;;;;;;5088821;28;20149;-64
2022/03/30 11:52:22;;;;;;;2.33;0.75;;;;;;;;;;5086101;28;20035;-65
2022/03/30 11:54:49;;;;;;;2.55;1.13;;;;;;;;;;5082747;28;20317;-64
2022/03/30 11:57:16;;;;;;;3.35;1.60;;;;;;;;;;5074723;28;20197;-64
2022/03/30 11:59:42;;;;;;;7.13;2.03;;;;;;;;;;5088985;28;20509;-64
2022/03/30 12:02:08;;;;;;;5.63;1.42;;;;;;;;;;5088418;28;20032;-64
2022/03/30 12:04:35;;;;;;;2.75;1.00;;;;;;;;;;5088017;28;20490;-64
2022/03/30 12:07:01;;;;;;;1.50;0.80;;;;;;;;;;5085909;28;20066;-65
2022/03/30 12:09:28;;;;;;;1.75;1.10;;;;;;;;;;5086810;28;20427;-64
2022/03/30 12:11:54;;;;;;;2.70;1.08;;;;;;;;;;5086632;28;20091;-64
2022/03/30 12:14:25;;;;;;;3.22;1.13;;;;;;;;;;5089939;28;20086;-64
2022/03/30 12:16:51;;;;;;;4.93;1.27;;;;;;;;;;5092092;28;20040;-64
2022/03/30 12:19:19;;;;;;;2.85;0.82;;;;;;;;;;5091573;28;20612;-64
2022/03/30 12:21:45;;;;;;;4.40;1.30;;;;;;;;;;5088967;28;20123;-64
2022/03/30 12:24:11;;;;;;;5.15;1.40;;;;;;;;;;5080052;28;20032;-65
2022/03/30 12:26:38;;;;;;;5.65;1.27;;;;;;;;;;5092064;28;20040;-64
2022/03/30 12:29:05;;;;;;;4.07;1.08;;;;;;;;;;5083372;28;20282;-64
2022/03/30 12:31:35;;;;;;;8.30;1.60;;;;;;;;;;5073890;28;20086;-64
2022/03/30 12:34:08;;;;;;;3.08;1.20;;;;;;;;;;5075229;28;20105;-64
2022/03/30 12:36:40;;;;;;;3.55;1.02;;;;;;;;;;5075447;28;20147;-64
2022/03/30 12:39:14;;;;;;;2.58;1.63;;;;;;;;;;5074093;28;20489;-64
2022/03/30 12:41:41;;;;;;;5.15;1.90;;;;;;;;;;5073384;28;20033;-64
2022/03/30 12:44:07;;;;;;;4.32;1.63;;;;;;;;;;5077079;28;20542;-64
2022/03/30 12:46:33;;;;;;;3.25;1.67;;;;;;;;;;5089766;28;20468;-64
2022/03/30 12:49:06;;;;;;;4.85;1.40;;;;;;;;;;5091736;28;20074;-64
2022/03/30 12:51:36;;;;;;;3.40;1.88;;;;;;;;;;5086471;28;20035;-64
2022/03/30 12:54:03;;;;;;;4.90;2.00;;;;;;;;;;5085336;28;20068;-64
2022/03/30 12:56:30;;;;;;;3.88;1.50;;;;;;;;;;5091411;28;20067;-64
2022/03/30 12:58:58;;;;;;;5.05;1.58;;;;;;;;;;5092618;28;20036;-64
2022/03/30 13:01:35;;;;;;;3.65;1.30;;;;;;;;;;5083845;28;20044;-64
2022/03/30 13:04:02;;;;;;;7.85;1.38;;;;;;;;;;5085620;28;20048;-64
2022/03/30 13:06:28;;;;;;;3.35;1.20;;;;;;;;;;5089379;28;20055;-64
2022/03/30 13:09:14;;;;;;;4.03;1.20;;;;;;;;;;5069096;28;20098;-64
2022/03/30 13:11:52;;;;;;;3.20;1.05;;;;;;;;;;5079704;28;21034;-64
2022/03/30 13:14:19;;;;;;;6.18;2.17;;;;;;;;;;5089412;28;20459;-64
2022/03/30 13:16:59;;;;;;;3.20;1.30;;;;;;;;;;5081000;28;20040;-64
2022/03/30 13:19:27;;;;;;;4.55;1.45;;;;;;;;;;5089623;28;20143;-64
2022/03/30 13:21:56;;;;;;;6.60;2.33;;;;;;;;;;5083907;28;20181;-64
2022/03/30 13:24:24;;;;;;;4.35;1.40;;;;;;;;;;5090048;28;20385;-64
2022/03/30 13:26:54;;;;;;;3.53;1.13;;;;;;;;;;5088061;28;20044;-64
2022/03/30 13:29:21;;;;;;;9.30;1.30;;;;;;;;;;5087323;28;20047;-64
2022/03/30 13:31:47;;;;;;;3.33;1.50;;;;;;;;;;5087388;28;20169;-64
2022/03/30 13:34:15;;;;;;;4.97;1.25;;;;;;;;;;5088000;28;20443;-64
2022/03/30 13:36:42;;;;;;;7.63;1.60;;;;;;;;;;5087145;28;20404;-64
2022/03/30 13:39:09;;;;;;;4.63;1.55;;;;;;;;;;5081570;28;20185;-64
2022/03/30 13:41:36;;;;;;;6.68;1.80;;;;;;;;;;5085921;28;20494;-64
2022/03/30 13:44:03;;;;;;;4.20;1.13;;;;;;;;;;5087378;28;20401;-64
2022/03/30 13:46:29;;;;;;;4.95;1.40;;;;;;;;;;5087345;28;20055;-64
2022/03/30 13:48:55;;;;;;;6.15;1.23;;;;;;;;;;5084593;28;20342;-64
2022/03/30 13:51:21;;;;;;;5.28;1.30;;;6.80;99.90;;;;;;5086977;28;20087;-64
2022/03/30 13:53:48;;;;;;;3.85;1.60;;;8.00;91.40;;;;;;5086692;28;20189;-64
2022/03/30 13:56:17;;;;;;;7.05;1.73;;;8.00;92.00;;;;;;5071659;28;20127;-64
2022/03/30 13:58:44;;;;;;;2.95;1.20;;;8.00;91.70;;;;;;5085464;28;20043;-64
2022/03/30 14:01:12;;;;;;;5.85;1.33;;;;;;;;;;5068355;28;20093;-63
2022/03/30 14:03:38;;;;;;;5.35;1.23;;;;;;;;;;5084533;28;20504;-64
2022/03/30 14:06:05;;;;;;;4.40;1.40;;;;;;;;;;5087127;28;20072;-64
2022/03/30 14:08:31;;;;;;;8.75;1.73;;;;;;;;;;5085806;28;20040;-64
2022/03/30 14:10:58;;;;;;;1.70;0.93;;;;;;;;;;5083677;28;20080;-64
2022/03/30 14:13:24;;;;;;;2.33;1.30;;;;;;;;;;5086160;28;20462;-64
2022/03/30 14:15:51;;;;;;;3.53;1.30;;;;;;;;;;5087230;28;20039;-64
2022/03/30 14:18:17;;;;;;;3.83;1.23;;;;;;;;;;5086450;28;20055;-64
2022/03/30 14:20:44;;;;;;;5.20;1.48;;;;;;;;;;5084856;28;20059;-64
2022/03/30 14:23:10;;;;;;;2.78;1.27;;;;;;;;;;5077726;28;20058;-64
2022/03/30 14:25:37;;;;;;;2.05;1.00;;;;;;;;;;5080234;28;20036;-64
2022/03/30 14:28:05;;;;;;;5.18;1.10;;;;;;;;;;5084073;28;20043;-64
2022/03/30 14:30:32;;;;;;;3.10;1.17;;;;;;;;;;5083672;28;20623;-64
2022/03/30 14:32:58;;;;;;;6.47;1.70;;;;;;;;;;5086972;28;20145;-64
2022/03/30 14:35:25;;;;;;;4.13;1.48;;;;;;;;;;5077502;28;20036;-64
2022/03/30 14:37:51;;;;;;;2.97;1.65;;;;;;;;;;5070115;28;20127;-64
2022/03/30 14:40:18;;;;;;;3.50;1.13;;;;;;;;;;5081724;28;20040;-64
2022/03/30 14:42:44;;;;;;;3.97;1.23;;;;;;;;;;5080911;28;20040;-64
2022/03/30 14:45:12;;;;;;;4.32;1.08;;;;;;;;;;5070167;28;20105;-64
2022/03/30 14:47:38;;;;;;;3.45;1.20;;;;;;;;;;5081716;28;20140;-64
2022/03/30 14:50:05;;;;;;;2.72;1.15;;;;;;;;;;5081487;28;20123;-64
2022/03/30 14:52:32;;;;;;;4.57;1.40;;;;;;;;;;5076823;28;20044;-63